createdAt,value
2023-05-19T00:02:06.345Z,40.40
2023-05-19T00:05:11.448Z,40.92
2023-05-19T00:08:19.661Z,41.13
2023-05-19T00:11:27.817Z,41.17
2023-05-19T00:14:32.886Z,40.66
2023-05-19T00:17:39.783Z,40.51
2023-05-19T00:20:46.382Z,40.87
2023-05-19T00:23:55.161Z,41.02
2023-05-19T00:27:01.601Z,40.78
2023-05-19T00:30:05.489Z,40.62
2023-05-19T00:33:11.899Z,39.94
2023-05-19T00:36:15.730Z,38.89
2023-05-19T00:39:19.247Z,39.23
2023-05-19T00:42:23.221Z,38.91
2023-05-19T00:45:26.675Z,38.75
2023-05-19T00:48:35.936Z,38.41
2023-05-19T00:51:39.663Z,38.02
2023-05-19T00:54:44.246Z,37.73
2023-05-19T00:57:49.037Z,37.91
2023-05-19T01:00:52.984Z,38.09
2023-05-19T01:03:59.902Z,38.02
2023-05-19T01:07:06.995Z,38.06
2023-05-19T01:10:11.434Z,38.56
2023-05-19T01:13:15.495Z,38.37
2023-05-19T01:16:42.436Z,40.05
2023-05-19T01:20:19.940Z,43.22
2023-05-19T01:23:26.575Z,44.42
2023-05-19T01:26:57.640Z,44.77
2023-05-19T01:30:24.656Z,43.93
2023-05-19T01:33:54.326Z,44.25
2023-05-19T01:37:01.770Z,42.49
2023-05-19T01:40:06.582Z,41.07
2023-05-19T01:43:13.552Z,40.81
2023-05-19T01:46:20.192Z,38.84
2023-05-19T01:49:49.541Z,36.78
2023-05-19T01:52:56.716Z,36.98
2023-05-19T01:56:00.879Z,34.92
2023-05-19T01:59:25.232Z,32.73
2023-05-19T02:03:09.178Z,32.69
2023-05-19T02:06:38.436Z,32.73
2023-05-19T02:10:25.248Z,33.82
2023-05-19T02:13:53.182Z,33.93
2023-05-19T02:16:59.995Z,34.40
2023-05-19T02:20:05.424Z,36.11
2023-05-19T02:23:09.023Z,37.56
2023-05-19T02:26:12.511Z,38.50
2023-05-19T02:33:07.454Z,41.40
2023-05-19T02:39:36.348Z,47.94
2023-05-19T02:42:51.938Z,48.91
2023-05-19T02:45:55.444Z,48.78
2023-05-19T02:49:04.798Z,50.07
2023-05-19T02:52:12.971Z,49.80
2023-05-19T02:55:29.753Z,52.86
2023-05-19T02:58:34.655Z,54.85
2023-05-19T03:01:38.505Z,55.19
2023-05-19T03:04:47.806Z,55.27
2023-05-19T03:08:00.789Z,54.96
2023-05-19T03:11:05.603Z,52.37
2023-05-19T03:14:11.008Z,49.67
2023-05-19T03:24:13.595Z,47.26
2023-05-19T03:27:17.683Z,47.43
2023-05-19T03:30:21.481Z,48.23
2023-05-19T03:33:50.856Z,47.80
2023-05-19T03:36:54.499Z,47.57
2023-05-19T03:39:58.861Z,47.72
2023-05-19T03:43:02.505Z,46.74
2023-05-19T03:46:07.042Z,47.34
2023-05-19T03:49:25.885Z,45.67
2023-05-19T03:53:04.835Z,44.98
2023-05-19T03:56:15.406Z,44.45
2023-05-19T03:59:18.959Z,44.61
2023-05-19T04:02:33.440Z,43.34
2023-05-19T04:05:45.087Z,43.72
2023-05-19T04:12:32.868Z,42.41
2023-05-19T04:15:36.397Z,41.13
2023-05-19T04:18:40.018Z,41.94
2023-05-19T04:21:43.780Z,41.43
2023-05-19T04:24:48.132Z,40.00
2023-05-19T04:27:53.717Z,40.32
2023-05-19T04:30:59.370Z,41.20
2023-05-19T04:34:03.776Z,41.31
2023-05-19T04:37:11.223Z,40.35
2023-05-19T04:40:26.857Z,41.54
2023-05-19T04:43:36.965Z,40.84
2023-05-19T04:46:41.255Z,40.54
2023-05-19T04:49:47.144Z,40.46
2023-05-19T04:52:51.049Z,41.20
2023-05-19T04:55:58.720Z,40.69
2023-05-19T04:59:02.190Z,41.17
2023-05-19T05:02:05.877Z,40.93
2023-05-19T05:05:16.287Z,42.48
2023-05-19T05:08:23.912Z,42.06
2023-05-19T05:11:27.937Z,42.11
2023-05-19T05:14:33.332Z,42.46
2023-05-19T05:17:39.013Z,43.06
2023-05-19T05:20:44.139Z,43.71
2023-05-19T05:23:48.929Z,44.02
2023-05-19T05:26:53.015Z,43.69
2023-05-19T05:29:59.145Z,43.37
2023-05-19T05:33:04.025Z,43.88
2023-05-19T05:36:10.794Z,44.42
2023-05-19T05:39:17.276Z,46.51
2023-05-19T05:42:28.195Z,47.48
2023-05-19T05:45:36.723Z,51.71
2023-05-19T05:48:42.992Z,49.61
2023-05-19T05:55:08.743Z,50.72
2023-05-19T05:58:12.463Z,49.02
2023-05-19T06:01:17.734Z,48.56
2023-05-19T06:04:28.103Z,48.16
2023-05-19T06:07:31.869Z,48.46
2023-05-19T06:10:37.594Z,48.58
2023-05-19T06:13:44.727Z,48.72
2023-05-19T06:16:57.773Z,48.90
2023-05-19T06:20:01.364Z,48.46
2023-05-19T06:23:05.832Z,48.88
2023-05-19T06:26:21.043Z,49.81
2023-05-19T06:29:26.864Z,50.42
2023-05-19T06:32:34.762Z,50.05
2023-05-19T06:35:38.269Z,51.03
2023-05-19T06:38:42.042Z,50.60
2023-05-19T06:41:50.281Z,51.18
2023-05-19T06:45:13.954Z,50.86
2023-05-19T06:48:17.592Z,50.72
2023-05-19T06:51:23.375Z,50.24
2023-05-19T06:54:31.519Z,49.35
2023-05-19T06:57:35.283Z,49.55
2023-05-19T07:00:39.297Z,49.58
2023-05-19T07:03:45.518Z,49.77
2023-05-19T07:06:51.108Z,50.02
2023-05-19T07:09:56.056Z,49.87
2023-05-19T07:12:59.953Z,50.59
2023-05-19T07:16:31.904Z,52.51
2023-05-19T07:19:36.095Z,54.98
2023-05-19T07:22:40.892Z,54.64
2023-05-19T07:25:44.686Z,56.95
2023-05-19T07:28:48.080Z,59.84
2023-05-19T07:31:55.007Z,63.04
2023-05-19T07:34:58.253Z,60.91
2023-05-19T07:38:01.827Z,63.47
2023-05-19T07:41:05.505Z,64.03
2023-05-19T07:44:09.440Z,62.91
2023-05-19T07:47:22.681Z,63.60
2023-05-19T07:50:26.657Z,64.45
2023-05-19T07:53:30.331Z,65.31
2023-05-19T07:56:49.283Z,63.44
2023-05-19T07:59:55.803Z,63.49
2023-05-19T08:06:34.755Z,62.08
2023-05-19T08:09:38.365Z,59.57
2023-05-19T08:12:41.973Z,60.71
2023-05-19T08:15:47.332Z,60.68
2023-05-19T08:18:54.139Z,60.35
2023-05-19T08:21:58.696Z,60.28
2023-05-19T08:25:09.880Z,60.34
2023-05-19T08:31:38.681Z,59.63
2023-05-19T08:34:43.186Z,59.33
2023-05-19T08:37:47.185Z,61.64
2023-05-19T08:40:51.133Z,63.41
2023-05-19T08:43:55.552Z,65.99
2023-05-19T08:47:03.851Z,66.25
2023-05-19T08:50:10.785Z,67.73
2023-05-19T08:53:33.662Z,68.21
2023-05-19T08:56:39.914Z,69.32
2023-05-19T08:59:44.897Z,68.37
2023-05-19T09:03:00.922Z,73.06
2023-05-19T09:06:10.375Z,71.32
2023-05-19T09:09:14.161Z,73.08
2023-05-19T09:12:22.196Z,70.32
2023-05-19T09:15:51.552Z,67.59
2023-05-19T09:19:01.952Z,69.31
2023-05-19T09:22:38.198Z,68.37
2023-05-19T09:25:54.417Z,68.16
2023-05-19T09:29:51.287Z,69.61
2023-05-19T09:33:00.330Z,67.45
2023-05-19T09:36:12.546Z,69.86
2023-05-19T09:39:36.875Z,68.82
2023-05-19T09:42:45.021Z,68.68
2023-05-19T09:50:02.307Z,67.92
2023-05-19T09:53:32.219Z,70.58
2023-05-19T09:56:47.298Z,70.55
2023-05-19T09:59:50.996Z,71.03
2023-05-19T10:02:55.478Z,71.40
2023-05-19T10:06:10.187Z,72.74
2023-05-19T10:09:14.489Z,71.56
2023-05-19T10:12:19.081Z,72.35
2023-05-19T10:15:23.279Z,73.41
2023-05-19T10:18:28.096Z,74.84
2023-05-19T10:21:35.108Z,72.80
2023-05-19T10:24:38.750Z,74.69
2023-05-19T10:27:59.203Z,75.43
2023-05-19T10:31:07.764Z,75.71
2023-05-19T10:34:56.005Z,73.36
2023-05-19T10:38:29.062Z,73.13
2023-05-19T10:41:39.311Z,72.88
2023-05-19T10:45:07.744Z,72.98
2023-05-19T10:48:18.651Z,73.40
2023-05-19T10:51:22.226Z,74.46
2023-05-19T10:54:47.794Z,73.83
2023-05-19T10:58:01.228Z,73.29
2023-05-19T11:01:12.029Z,74.37
2023-05-19T11:04:16.642Z,73.42
2023-05-19T11:07:35.474Z,73.30
2023-05-19T11:10:40.420Z,72.49
2023-05-19T11:13:55.749Z,73.21
2023-05-19T11:17:01.062Z,72.43
2023-05-19T11:26:48.479Z,71.98
2023-05-19T11:30:20.791Z,73.71
2023-05-19T11:33:28.416Z,72.25
2023-05-19T11:39:54.024Z,70.97
2023-05-19T11:42:58.066Z,71.00
2023-05-19T11:46:02.559Z,70.18
2023-05-19T11:49:07.214Z,70.01
2023-05-19T11:52:10.729Z,70.14
2023-05-19T11:55:18.137Z,69.67
2023-05-19T11:58:28.578Z,69.24
2023-05-19T12:01:47.226Z,69.95
2023-05-19T12:04:50.842Z,69.61
2023-05-19T12:07:54.886Z,69.16
2023-05-19T12:11:01.137Z,69.69
2023-05-19T12:14:04.664Z,69.51
2023-05-19T12:17:20.528Z,68.85
2023-05-19T12:20:25.071Z,69.08
2023-05-19T12:23:31.387Z,68.96
2023-05-19T12:26:38.075Z,68.86
2023-05-19T12:29:42.403Z,69.39
2023-05-19T12:32:47.498Z,69.75
2023-05-19T12:35:55.515Z,69.06
2023-05-19T12:38:59.165Z,69.20
2023-05-19T12:42:04.494Z,69.01
2023-05-19T12:45:08.715Z,69.28
2023-05-19T12:48:13.462Z,69.15
2023-05-19T12:51:22.534Z,69.33
2023-05-19T12:54:26.915Z,68.73
2023-05-19T12:57:33.250Z,69.79
2023-05-19T13:00:45.959Z,69.26
2023-05-19T13:03:49.779Z,68.32
2023-05-19T13:06:54.511Z,69.52
2023-05-19T13:09:57.940Z,68.92
2023-05-19T13:13:01.886Z,67.87
2023-05-19T13:16:05.537Z,68.29
2023-05-19T13:19:21.207Z,66.74
2023-05-19T13:22:28.164Z,67.89
2023-05-19T13:25:31.920Z,68.42
2023-05-19T13:28:35.827Z,68.00
2023-05-19T13:31:43.351Z,67.43
2023-05-19T13:34:46.908Z,67.53
2023-05-19T13:37:50.667Z,68.34
2023-05-19T13:40:54.117Z,68.41
2023-05-19T13:44:07.579Z,67.21
2023-05-19T13:53:46.890Z,67.67
2023-05-19T13:56:50.426Z,68.69
2023-05-19T14:00:03.245Z,68.96
2023-05-19T14:03:20.322Z,68.75
2023-05-19T14:06:23.817Z,68.03
2023-05-19T14:09:28.112Z,68.56
2023-05-19T14:12:45.003Z,68.72
2023-05-19T14:15:56.867Z,68.89
2023-05-19T14:19:00.407Z,69.79
2023-05-19T14:22:04.102Z,69.99
2023-05-19T14:25:08.472Z,69.07
2023-05-19T14:28:11.921Z,69.90
2023-05-19T14:31:15.951Z,67.95
2023-05-19T14:34:21.676Z,67.00
2023-05-19T14:37:27.315Z,66.31
2023-05-19T14:40:30.897Z,66.35
2023-05-19T14:43:34.610Z,66.90
2023-05-19T14:46:38.094Z,67.96
2023-05-19T14:49:41.662Z,67.39
2023-05-19T14:52:45.261Z,66.74
2023-05-19T14:55:51.715Z,67.72
2023-05-19T14:58:55.252Z,66.97
2023-05-19T15:01:58.918Z,66.73
2023-05-19T15:05:02.303Z,66.49
2023-05-19T15:08:06.460Z,67.15
2023-05-19T15:11:10.059Z,65.91
2023-05-19T15:14:13.581Z,66.30
2023-05-19T15:17:17.056Z,66.44
2023-05-19T15:20:20.646Z,66.64
2023-05-19T15:23:24.092Z,66.90
2023-05-19T15:26:29.797Z,66.48
2023-05-19T15:29:33.291Z,67.24
2023-05-19T15:32:36.859Z,66.28
2023-05-19T15:35:40.687Z,66.88
2023-05-19T15:38:44.371Z,66.45
2023-05-19T15:41:47.856Z,66.75
2023-05-19T15:44:51.536Z,66.05
2023-05-19T15:47:55.097Z,66.06
2023-05-19T15:50:59.005Z,65.86
2023-05-19T15:54:02.443Z,66.05
2023-05-19T15:57:06.146Z,66.34
2023-05-19T16:00:10.235Z,65.46
2023-05-19T16:03:13.766Z,65.78
2023-05-19T16:06:18.524Z,65.14
2023-05-19T16:09:21.982Z,65.56
2023-05-19T16:12:25.420Z,65.34
2023-05-19T16:15:28.832Z,65.37
2023-05-19T16:18:32.306Z,65.22
2023-05-19T16:21:35.831Z,66.12
2023-05-19T16:24:39.237Z,66.97
2023-05-19T16:27:42.670Z,65.87
2023-05-19T16:30:46.761Z,65.72
2023-05-19T16:33:50.402Z,64.39
2023-05-19T16:36:53.795Z,64.95
2023-05-19T16:39:57.217Z,64.66
2023-05-19T16:43:00.673Z,64.70
2023-05-19T16:46:05.476Z,64.51
2023-05-19T16:49:08.996Z,64.54
2023-05-19T16:52:12.469Z,64.44
2023-05-19T16:55:20.325Z,65.08
2023-05-19T16:58:23.819Z,63.51
2023-05-19T17:01:27.250Z,63.80
2023-05-19T17:04:30.968Z,63.62
2023-05-19T17:07:34.573Z,63.75
2023-05-19T17:10:39.395Z,63.67
2023-05-19T17:13:44.618Z,63.05
2023-05-19T17:16:48.240Z,62.57
2023-05-19T17:19:51.884Z,62.89
2023-05-19T17:22:55.347Z,63.30
2023-05-19T17:25:58.994Z,62.30
2023-05-19T17:29:02.453Z,65.17
2023-05-19T17:32:06.625Z,65.42
2023-05-19T17:35:10.476Z,66.00
2023-05-19T17:38:13.991Z,67.48
2023-05-19T17:41:17.954Z,68.18
2023-05-19T17:44:21.274Z,68.04
2023-05-19T17:47:24.801Z,68.34
2023-05-19T17:50:28.369Z,68.13
2023-05-19T17:53:32.023Z,68.64
2023-05-19T17:56:40.601Z,67.54
2023-05-19T17:59:44.124Z,67.27
2023-05-19T18:02:47.875Z,67.32
2023-05-19T18:05:52.205Z,66.96
2023-05-19T18:08:58.755Z,67.36
2023-05-19T18:12:03.122Z,67.61
2023-05-19T18:15:09.293Z,66.80
2023-05-19T18:18:13.353Z,67.05
2023-05-19T18:21:18.570Z,67.42
2023-05-19T18:24:22.042Z,67.26
2023-05-19T18:27:25.391Z,67.12
2023-05-19T18:30:28.842Z,67.56
2023-05-19T18:33:33.054Z,67.37
2023-05-19T18:36:38.219Z,67.62
2023-05-19T18:39:41.850Z,67.17
2023-05-19T18:42:45.277Z,67.50
2023-05-19T18:45:48.848Z,67.22
2023-05-19T18:48:52.361Z,67.13
2023-05-19T18:51:55.996Z,66.80
2023-05-19T18:55:01.497Z,66.77
2023-05-19T18:58:05.087Z,66.71
2023-05-19T19:01:08.957Z,66.70
2023-05-19T19:04:12.956Z,66.35
2023-05-19T19:07:16.375Z,66.68
2023-05-19T19:10:20.047Z,67.00
2023-05-19T19:13:23.508Z,66.60
2023-05-19T19:16:26.938Z,66.25
2023-05-19T19:19:31.299Z,66.90
2023-05-19T19:22:34.752Z,66.16
2023-05-19T19:25:38.288Z,65.78
2023-05-19T19:28:41.862Z,66.19
2023-05-19T19:31:45.274Z,65.55
2023-05-19T19:34:48.828Z,65.85
2023-05-19T19:37:52.594Z,65.89
2023-05-19T19:40:56.043Z,66.25
2023-05-19T19:43:59.490Z,66.78
2023-05-19T19:47:06.794Z,66.93
2023-05-19T19:50:11.485Z,66.84
2023-05-19T19:53:14.946Z,67.23
2023-05-19T19:56:18.471Z,67.38
2023-05-19T19:59:21.995Z,67.48
2023-05-19T20:02:25.562Z,67.55
2023-05-19T20:05:29.116Z,67.16
2023-05-19T20:08:32.510Z,67.27
2023-05-19T20:11:35.967Z,66.73
2023-05-19T20:14:39.501Z,66.55
2023-05-19T20:17:42.961Z,66.38
2023-05-19T20:20:46.494Z,66.57
2023-05-19T20:23:51.798Z,67.05
2023-05-19T20:26:55.154Z,66.25
2023-05-19T20:29:58.528Z,66.38
2023-05-19T20:33:01.999Z,65.86
2023-05-19T20:36:07.489Z,66.01
2023-05-19T20:39:10.972Z,65.44
2023-05-19T20:42:14.474Z,64.99
2023-05-19T20:45:17.979Z,64.80
2023-05-19T20:48:21.717Z,65.50
2023-05-19T20:51:26.001Z,65.75
2023-05-19T20:54:29.739Z,65.31
2023-05-19T20:57:33.152Z,65.06
2023-05-19T21:00:37.222Z,65.47
2023-05-19T21:03:40.873Z,65.44
2023-05-19T21:06:44.395Z,65.58
2023-05-19T21:09:51.046Z,64.90
2023-05-19T21:12:54.602Z,64.56
2023-05-19T21:15:58.287Z,63.46
2023-05-19T21:19:02.686Z,62.84
2023-05-19T21:22:06.653Z,61.69
2023-05-19T21:25:10.198Z,60.79
2023-05-19T21:28:13.792Z,60.25
2023-05-19T21:31:17.374Z,59.49
2023-05-19T21:34:20.772Z,59.26
2023-05-19T21:37:24.364Z,58.83
2023-05-19T21:40:27.961Z,58.73
2023-05-19T21:43:31.596Z,57.72
2023-05-19T21:46:35.093Z,57.60
2023-05-19T21:49:40.708Z,56.69
2023-05-19T21:52:44.259Z,56.20
2023-05-19T21:55:47.756Z,55.60
2023-05-19T21:58:51.132Z,55.16
2023-05-19T22:01:54.658Z,54.59
2023-05-19T22:04:58.056Z,53.84
2023-05-19T22:08:01.686Z,53.48
2023-05-19T22:11:05.127Z,53.63
2023-05-19T22:14:08.525Z,53.45
2023-05-19T22:17:11.932Z,53.29
2023-05-19T22:20:15.356Z,50.23
2023-05-19T22:23:18.703Z,48.13
2023-05-19T22:26:22.807Z,48.73
2023-05-19T22:29:26.687Z,46.57
2023-05-19T22:32:31.174Z,43.95
2023-05-19T22:35:34.846Z,42.16
2023-05-19T22:38:38.291Z,38.89
2023-05-19T22:41:41.880Z,36.67
2023-05-19T22:44:46.677Z,34.79
2023-05-19T22:47:51.900Z,32.47
2023-05-19T22:50:55.433Z,30.95
2023-05-19T22:53:59.212Z,31.05
2023-05-19T22:57:02.795Z,30.37
2023-05-19T23:00:06.788Z,30.29
2023-05-19T23:03:10.225Z,30.45
2023-05-19T23:06:13.741Z,30.39
2023-05-19T23:09:18.586Z,30.79
2023-05-19T23:12:22.438Z,31.10
2023-05-19T23:15:25.889Z,30.81
2023-05-19T23:18:29.283Z,30.29
2023-05-19T23:21:33.279Z,29.63
2023-05-19T23:24:36.783Z,28.84
2023-05-19T23:27:40.395Z,28.24
2023-05-19T23:30:43.752Z,27.44
2023-05-19T23:33:47.224Z,28.32
2023-05-19T23:36:53.284Z,28.33
2023-05-19T23:39:56.748Z,28.46
2023-05-19T23:43:00.201Z,27.46
2023-05-19T23:46:03.648Z,27.34
2023-05-19T23:49:07.182Z,27.05
2023-05-19T23:52:10.517Z,25.93
2023-05-19T23:55:14.466Z,25.13
2023-05-19T23:58:18.410Z,23.84
